sensor_id;sensor_type;location;lat;lon;timestamp;temperature;humidity
15574;DHT22;7888;46.748;8.102;2023-01-26T00:01:16;3.70;50.50
15574;DHT22;7888;46.748;8.102;2023-01-26T00:03:44;3.70;50.60
15574;DHT22;7888;46.748;8.102;2023-01-26T00:06:12;3.70;50.60
15574;DHT22;7888;46.748;8.102;2023-01-26T00:08:44;3.70;50.60
15574;DHT22;7888;46.748;8.102;2023-01-26T00:11:14;3.70;50.70
15574;DHT22;7888;46.748;8.102;2023-01-26T00:13:41;3.70;50.60
15574;DHT22;7888;46.748;8.102;2023-01-26T00:16:10;3.70;50.60
15574;DHT22;7888;46.748;8.102;2023-01-26T00:18:38;3.70;50.70
15574;DHT22;7888;46.748;8.102;2023-01-26T00:21:06;3.60;50.60
15574;DHT22;7888;46.748;8.102;2023-01-26T00:23:34;3.60;50.60
15574;DHT22;7888;46.748;8.102;2023-01-26T00:26:00;3.60;50.80
15574;DHT22;7888;46.748;8.102;2023-01-26T00:28:27;3.60;50.70
15574;DHT22;7888;46.748;8.102;2023-01-26T00:31:00;3.60;50.80
15574;DHT22;7888;46.748;8.102;2023-01-26T00:33:30;3.60;50.70
15574;DHT22;7888;46.748;8.102;2023-01-26T00:35:56;3.60;50.70
15574;DHT22;7888;46.748;8.102;2023-01-26T00:38:22;3.60;50.70
15574;DHT22;7888;46.748;8.102;2023-01-26T00:40:48;3.60;50.70
15574;DHT22;7888;46.748;8.102;2023-01-26T00:43:14;3.60;50.70
15574;DHT22;7888;46.748;8.102;2023-01-26T00:45:40;3.60;50.70
15574;DHT22;7888;46.748;8.102;2023-01-26T00:48:07;3.60;50.70
15574;DHT22;7888;46.748;8.102;2023-01-26T00:50:32;3.60;50.80
15574;DHT22;7888;46.748;8.102;2023-01-26T00:52:59;3.60;50.80
15574;DHT22;7888;46.748;8.102;2023-01-26T00:55:25;3.60;50.80
15574;DHT22;7888;46.748;8.102;2023-01-26T00:58:02;3.60;50.80
15574;DHT22;7888;46.748;8.102;2023-01-26T01:00:32;3.60;50.80
15574;DHT22;7888;46.748;8.102;2023-01-26T01:03:00;3.60;50.70
15574;DHT22;7888;46.748;8.102;2023-01-26T01:05:28;3.60;50.80
15574;DHT22;7888;46.748;8.102;2023-01-26T01:07:55;3.60;50.70
15574;DHT22;7888;46.748;8.102;2023-01-26T01:10:21;3.60;50.70
15574;DHT22;7888;46.748;8.102;2023-01-26T01:12:47;3.50;50.60
15574;DHT22;7888;46.748;8.102;2023-01-26T01:15:13;3.50;50.60
15574;DHT22;7888;46.748;8.102;2023-01-26T01:17:39;3.50;50.70
15574;DHT22;7888;46.748;8.102;2023-01-26T01:20:07;3.50;50.70
15574;DHT22;7888;46.748;8.102;2023-01-26T01:22:35;3.50;50.80
15574;DHT22;7888;46.748;8.102;2023-01-26T01:25:02;3.50;50.80
15574;DHT22;7888;46.748;8.102;2023-01-26T01:27:28;3.50;50.80
15574;DHT22;7888;46.748;8.102;2023-01-26T01:29:54;3.40;50.80
15574;DHT22;7888;46.748;8.102;2023-01-26T01:32:19;3.40;50.80
15574;DHT22;7888;46.748;8.102;2023-01-26T01:34:46;3.40;50.80
15574;DHT22;7888;46.748;8.102;2023-01-26T01:37:13;3.40;50.80
15574;DHT22;7888;46.748;8.102;2023-01-26T01:39:39;3.40;50.80
15574;DHT22;7888;46.748;8.102;2023-01-26T01:42:05;3.40;50.80
15574;DHT22;7888;46.748;8.102;2023-01-26T01:44:34;3.40;50.80
15574;DHT22;7888;46.748;8.102;2023-01-26T01:47:14;3.40;50.80
15574;DHT22;7888;46.748;8.102;2023-01-26T01:49:48;3.40;50.80
15574;DHT22;7888;46.748;8.102;2023-01-26T01:52:20;3.40;50.80
15574;DHT22;7888;46.748;8.102;2023-01-26T01:55:01;3.40;50.80
15574;DHT22;7888;46.748;8.102;2023-01-26T01:57:36;3.40;51.00
15574;DHT22;7888;46.748;8.102;2023-01-26T02:00:18;3.40;50.90
15574;DHT22;7888;46.748;8.102;2023-01-26T02:03:04;3.40;51.00
15574;DHT22;7888;46.748;8.102;2023-01-26T02:06:02;3.40;50.90
15574;DHT22;7888;46.748;8.102;2023-01-26T02:08:53;3.40;50.90
15574;DHT22;7888;46.748;8.102;2023-01-26T02:11:37;3.40;50.80
15574;DHT22;7888;46.748;8.102;2023-01-26T02:14:11;3.40;51.00
15574;DHT22;7888;46.748;8.102;2023-01-26T02:16:39;3.40;50.90
15574;DHT22;7888;46.748;8.102;2023-01-26T02:19:13;3.40;50.90
15574;DHT22;7888;46.748;8.102;2023-01-26T02:21:51;3.40;51.10
15574;DHT22;7888;46.748;8.102;2023-01-26T02:24:25;3.40;51.00
15574;DHT22;7888;46.748;8.102;2023-01-26T02:26:56;3.40;51.20
15574;DHT22;7888;46.748;8.102;2023-01-26T02:29:22;3.40;51.10
15574;DHT22;7888;46.748;8.102;2023-01-26T02:31:48;3.40;51.00
15574;DHT22;7888;46.748;8.102;2023-01-26T02:34:14;3.50;51.10
15574;DHT22;7888;46.748;8.102;2023-01-26T02:36:40;3.50;51.10
15574;DHT22;7888;46.748;8.102;2023-01-26T02:42:01;3.50;51.20
15574;DHT22;7888;46.748;8.102;2023-01-26T02:44:46;3.50;51.00
15574;DHT22;7888;46.748;8.102;2023-01-26T02:47:17;3.50;50.90
15574;DHT22;7888;46.748;8.102;2023-01-26T02:49:44;3.50;50.90
15574;DHT22;7888;46.748;8.102;2023-01-26T02:52:16;3.50;50.80
15574;DHT22;7888;46.748;8.102;2023-01-26T02:54:47;3.50;50.80
15574;DHT22;7888;46.748;8.102;2023-01-26T02:57:32;3.50;50.90
15574;DHT22;7888;46.748;8.102;2023-01-26T02:59:59;3.40;50.80
15574;DHT22;7888;46.748;8.102;2023-01-26T03:02:25;3.40;50.80
15574;DHT22;7888;46.748;8.102;2023-01-26T03:04:51;3.40;50.90
15574;DHT22;7888;46.748;8.102;2023-01-26T03:07:17;3.40;50.90
15574;DHT22;7888;46.748;8.102;2023-01-26T03:09:43;3.40;50.80
15574;DHT22;7888;46.748;8.102;2023-01-26T03:12:09;3.40;50.70
15574;DHT22;7888;46.748;8.102;2023-01-26T03:14:35;3.40;50.60
15574;DHT22;7888;46.748;8.102;2023-01-26T03:17:00;3.30;50.50
15574;DHT22;7888;46.748;8.102;2023-01-26T03:19:26;3.30;50.50
15574;DHT22;7888;46.748;8.102;2023-01-26T03:22:11;3.30;50.60
15574;DHT22;7888;46.748;8.102;2023-01-26T03:24:55;3.20;50.60
15574;DHT22;7888;46.748;8.102;2023-01-26T03:27:45;3.20;50.60
15574;DHT22;7888;46.748;8.102;2023-01-26T03:30:15;3.10;50.70
15574;DHT22;7888;46.748;8.102;2023-01-26T03:32:43;3.10;50.70
15574;DHT22;7888;46.748;8.102;2023-01-26T03:35:10;3.10;50.80
15574;DHT22;7888;46.748;8.102;2023-01-26T03:37:46;3.00;50.80
15574;DHT22;7888;46.748;8.102;2023-01-26T03:40:19;3.00;50.90
15574;DHT22;7888;46.748;8.102;2023-01-26T03:43:10;3.00;50.90
15574;DHT22;7888;46.748;8.102;2023-01-26T03:45:54;3.00;51.00
15574;DHT22;7888;46.748;8.102;2023-01-26T03:48:38;3.00;50.90
15574;DHT22;7888;46.748;8.102;2023-01-26T03:51:22;2.90;50.90
15574;DHT22;7888;46.748;8.102;2023-01-26T03:54:06;3.00;51.00
15574;DHT22;7888;46.748;8.102;2023-01-26T03:56:51;2.90;50.90
15574;DHT22;7888;46.748;8.102;2023-01-26T03:59:16;2.90;51.00
15574;DHT22;7888;46.748;8.102;2023-01-26T04:01:46;2.90;51.00
15574;DHT22;7888;46.748;8.102;2023-01-26T04:04:31;2.90;51.00
15574;DHT22;7888;46.748;8.102;2023-01-26T04:07:15;2.90;51.10
15574;DHT22;7888;46.748;8.102;2023-01-26T04:10:00;2.90;51.10
15574;DHT22;7888;46.748;8.102;2023-01-26T04:12:25;2.90;51.10
15574;DHT22;7888;46.748;8.102;2023-01-26T04:14:51;2.90;51.10
15574;DHT22;7888;46.748;8.102;2023-01-26T04:17:35;2.90;51.20
15574;DHT22;7888;46.748;8.102;2023-01-26T04:20:19;2.90;51.20
15574;DHT22;7888;46.748;8.102;2023-01-26T04:23:03;2.90;51.10
15574;DHT22;7888;46.748;8.102;2023-01-26T04:25:29;2.90;51.10
15574;DHT22;7888;46.748;8.102;2023-01-26T04:27:55;2.90;51.10
15574;DHT22;7888;46.748;8.102;2023-01-26T04:30:20;2.90;51.10
15574;DHT22;7888;46.748;8.102;2023-01-26T04:32:46;2.90;51.10
15574;DHT22;7888;46.748;8.102;2023-01-26T04:35:12;2.90;51.10
15574;DHT22;7888;46.748;8.102;2023-01-26T04:37:39;2.90;51.10
15574;DHT22;7888;46.748;8.102;2023-01-26T04:40:06;2.90;51.00
15574;DHT22;7888;46.748;8.102;2023-01-26T04:42:32;2.90;51.00
15574;DHT22;7888;46.748;8.102;2023-01-26T04:44:58;2.90;51.00
15574;DHT22;7888;46.748;8.102;2023-01-26T04:47:24;2.80;50.90
15574;DHT22;7888;46.748;8.102;2023-01-26T04:49:49;2.80;50.90
15574;DHT22;7888;46.748;8.102;2023-01-26T04:52:15;2.80;50.90
15574;DHT22;7888;46.748;8.102;2023-01-26T04:54:41;2.80;51.00
15574;DHT22;7888;46.748;8.102;2023-01-26T04:57:08;2.80;51.00
15574;DHT22;7888;46.748;8.102;2023-01-26T04:59:34;2.80;50.90
15574;DHT22;7888;46.748;8.102;2023-01-26T05:02:00;2.80;50.90
15574;DHT22;7888;46.748;8.102;2023-01-26T05:04:26;2.70;50.90
15574;DHT22;7888;46.748;8.102;2023-01-26T05:06:51;2.70;50.90
15574;DHT22;7888;46.748;8.102;2023-01-26T05:09:17;2.70;50.90
15574;DHT22;7888;46.748;8.102;2023-01-26T05:11:43;2.70;51.00
15574;DHT22;7888;46.748;8.102;2023-01-26T05:14:09;2.70;51.00
15574;DHT22;7888;46.748;8.102;2023-01-26T05:16:35;2.70;51.60
15574;DHT22;7888;46.748;8.102;2023-01-26T05:19:00;2.70;51.00
15574;DHT22;7888;46.748;8.102;2023-01-26T05:21:26;2.70;51.00
15574;DHT22;7888;46.748;8.102;2023-01-26T05:23:53;2.70;51.00
15574;DHT22;7888;46.748;8.102;2023-01-26T05:26:19;2.70;51.00
15574;DHT22;7888;46.748;8.102;2023-01-26T05:28:45;2.70;51.00
15574;DHT22;7888;46.748;8.102;2023-01-26T05:31:11;2.70;51.10
15574;DHT22;7888;46.748;8.102;2023-01-26T05:33:37;2.70;51.10
15574;DHT22;7888;46.748;8.102;2023-01-26T05:36:07;2.70;51.10
15574;DHT22;7888;46.748;8.102;2023-01-26T05:38:33;2.70;51.30
15574;DHT22;7888;46.748;8.102;2023-01-26T05:40:59;2.70;51.10
15574;DHT22;7888;46.748;8.102;2023-01-26T05:43:25;2.70;51.10
15574;DHT22;7888;46.748;8.102;2023-01-26T05:45:51;2.70;51.10
15574;DHT22;7888;46.748;8.102;2023-01-26T05:48:17;2.70;51.20
15574;DHT22;7888;46.748;8.102;2023-01-26T05:50:42;2.70;51.10
15574;DHT22;7888;46.748;8.102;2023-01-26T05:53:08;2.70;51.10
15574;DHT22;7888;46.748;8.102;2023-01-26T05:55:34;2.70;51.10
15574;DHT22;7888;46.748;8.102;2023-01-26T05:58:00;2.70;51.10
15574;DHT22;7888;46.748;8.102;2023-01-26T06:00:26;2.70;51.20
15574;DHT22;7888;46.748;8.102;2023-01-26T06:02:52;2.70;51.20
15574;DHT22;7888;46.748;8.102;2023-01-26T06:05:18;2.70;51.20
15574;DHT22;7888;46.748;8.102;2023-01-26T06:07:44;2.70;51.10
15574;DHT22;7888;46.748;8.102;2023-01-26T06:10:10;2.60;51.10
15574;DHT22;7888;46.748;8.102;2023-01-26T06:12:36;2.70;51.10
15574;DHT22;7888;46.748;8.102;2023-01-26T06:15:03;2.60;51.10
15574;DHT22;7888;46.748;8.102;2023-01-26T06:17:31;2.60;51.10
15574;DHT22;7888;46.748;8.102;2023-01-26T06:19:57;2.70;51.10
15574;DHT22;7888;46.748;8.102;2023-01-26T06:22:23;2.60;51.10
15574;DHT22;7888;46.748;8.102;2023-01-26T06:24:49;2.70;51.10
15574;DHT22;7888;46.748;8.102;2023-01-26T06:27:16;2.70;51.10
15574;DHT22;7888;46.748;8.102;2023-01-26T06:29:43;2.70;51.10
15574;DHT22;7888;46.748;8.102;2023-01-26T06:32:11;2.60;51.00
15574;DHT22;7888;46.748;8.102;2023-01-26T06:34:38;2.60;51.00
15574;DHT22;7888;46.748;8.102;2023-01-26T06:37:03;2.60;51.00
15574;DHT22;7888;46.748;8.102;2023-01-26T06:39:29;2.60;51.00
15574;DHT22;7888;46.748;8.102;2023-01-26T06:41:55;2.60;51.20
15574;DHT22;7888;46.748;8.102;2023-01-26T06:44:21;2.60;51.20
15574;DHT22;7888;46.748;8.102;2023-01-26T06:46:46;2.60;51.20
15574;DHT22;7888;46.748;8.102;2023-01-26T06:49:12;2.50;51.10
15574;DHT22;7888;46.748;8.102;2023-01-26T06:54:43;2.50;51.30
15574;DHT22;7888;46.748;8.102;2023-01-26T06:57:12;2.50;51.10
15574;DHT22;7888;46.748;8.102;2023-01-26T06:59:38;2.50;51.10
15574;DHT22;7888;46.748;8.102;2023-01-26T07:02:08;2.50;51.20
15574;DHT22;7888;46.748;8.102;2023-01-26T07:04:41;2.50;51.20
15574;DHT22;7888;46.748;8.102;2023-01-26T07:07:06;2.40;51.10
15574;DHT22;7888;46.748;8.102;2023-01-26T07:09:32;2.40;51.20
15574;DHT22;7888;46.748;8.102;2023-01-26T07:11:58;2.40;51.20
15574;DHT22;7888;46.748;8.102;2023-01-26T07:14:24;2.40;51.20
15574;DHT22;7888;46.748;8.102;2023-01-26T07:16:49;2.40;51.30
15574;DHT22;7888;46.748;8.102;2023-01-26T07:19:15;2.40;51.40
15574;DHT22;7888;46.748;8.102;2023-01-26T07:21:41;2.40;51.50
15574;DHT22;7888;46.748;8.102;2023-01-26T07:24:08;2.40;51.50
15574;DHT22;7888;46.748;8.102;2023-01-26T07:26:34;2.40;51.60
15574;DHT22;7888;46.748;8.102;2023-01-26T07:29:00;2.40;51.60
15574;DHT22;7888;46.748;8.102;2023-01-26T07:31:25;2.40;51.60
15574;DHT22;7888;46.748;8.102;2023-01-26T07:33:51;2.50;51.60
15574;DHT22;7888;46.748;8.102;2023-01-26T07:36:17;2.50;51.50
15574;DHT22;7888;46.748;8.102;2023-01-26T07:38:43;2.50;51.40
15574;DHT22;7888;46.748;8.102;2023-01-26T07:41:10;2.50;51.30
15574;DHT22;7888;46.748;8.102;2023-01-26T07:43:38;2.60;51.40
15574;DHT22;7888;46.748;8.102;2023-01-26T07:46:04;2.50;51.30
15574;DHT22;7888;46.748;8.102;2023-01-26T07:48:31;2.50;51.30
15574;DHT22;7888;46.748;8.102;2023-01-26T07:50:59;2.60;51.30
15574;DHT22;7888;46.748;8.102;2023-01-26T07:53:26;2.60;51.30
15574;DHT22;7888;46.748;8.102;2023-01-26T07:56:03;2.60;51.30
15574;DHT22;7888;46.748;8.102;2023-01-26T07:58:31;2.60;51.30
15574;DHT22;7888;46.748;8.102;2023-01-26T08:01:12;2.60;51.40
15574;DHT22;7888;46.748;8.102;2023-01-26T08:03:40;2.60;51.40
15574;DHT22;7888;46.748;8.102;2023-01-26T08:06:07;2.60;51.30
15574;DHT22;7888;46.748;8.102;2023-01-26T08:08:33;2.60;51.30
15574;DHT22;7888;46.748;8.102;2023-01-26T08:11:00;2.70;51.30
15574;DHT22;7888;46.748;8.102;2023-01-26T08:13:27;2.70;51.40
15574;DHT22;7888;46.748;8.102;2023-01-26T08:15:58;2.70;51.30
15574;DHT22;7888;46.748;8.102;2023-01-26T08:18:26;2.70;51.30
15574;DHT22;7888;46.748;8.102;2023-01-26T08:20:52;2.70;51.20
15574;DHT22;7888;46.748;8.102;2023-01-26T08:23:19;2.70;51.20
15574;DHT22;7888;46.748;8.102;2023-01-26T08:25:46;2.70;51.20
15574;DHT22;7888;46.748;8.102;2023-01-26T08:28:12;2.70;51.20
15574;DHT22;7888;46.748;8.102;2023-01-26T08:30:38;2.70;51.20
15574;DHT22;7888;46.748;8.102;2023-01-26T08:33:04;2.70;51.20
15574;DHT22;7888;46.748;8.102;2023-01-26T08:35:31;2.70;51.20
15574;DHT22;7888;46.748;8.102;2023-01-26T08:37:57;2.80;51.20
15574;DHT22;7888;46.748;8.102;2023-01-26T08:40:24;2.80;51.10
15574;DHT22;7888;46.748;8.102;2023-01-26T08:42:51;2.80;51.10
15574;DHT22;7888;46.748;8.102;2023-01-26T08:45:17;2.80;51.10
15574;DHT22;7888;46.748;8.102;2023-01-26T08:47:43;2.80;51.10
15574;DHT22;7888;46.748;8.102;2023-01-26T08:50:10;2.80;51.00
15574;DHT22;7888;46.748;8.102;2023-01-26T08:52:36;2.80;51.00
15574;DHT22;7888;46.748;8.102;2023-01-26T08:55:02;2.80;51.00
15574;DHT22;7888;46.748;8.102;2023-01-26T08:57:29;2.80;50.90
15574;DHT22;7888;46.748;8.102;2023-01-26T08:59:54;2.80;51.00
15574;DHT22;7888;46.748;8.102;2023-01-26T09:02:20;2.80;51.00
15574;DHT22;7888;46.748;8.102;2023-01-26T09:04:46;2.80;51.00
15574;DHT22;7888;46.748;8.102;2023-01-26T09:07:12;2.80;51.00
15574;DHT22;7888;46.748;8.102;2023-01-26T09:09:38;2.80;50.90
15574;DHT22;7888;46.748;8.102;2023-01-26T09:12:04;2.80;50.90
15574;DHT22;7888;46.748;8.102;2023-01-26T09:14:30;2.80;51.20
15574;DHT22;7888;46.748;8.102;2023-01-26T09:16:55;2.80;51.10
15574;DHT22;7888;46.748;8.102;2023-01-26T09:19:21;2.80;51.00
15574;DHT22;7888;46.748;8.102;2023-01-26T09:21:53;2.80;51.00
15574;DHT22;7888;46.748;8.102;2023-01-26T09:24:20;2.80;51.00
15574;DHT22;7888;46.748;8.102;2023-01-26T09:26:46;2.80;51.00
15574;DHT22;7888;46.748;8.102;2023-01-26T09:29:12;2.80;51.10
15574;DHT22;7888;46.748;8.102;2023-01-26T09:31:38;2.80;51.10
15574;DHT22;7888;46.748;8.102;2023-01-26T09:34:05;2.80;51.20
15574;DHT22;7888;46.748;8.102;2023-01-26T09:36:31;2.80;51.20
15574;DHT22;7888;46.748;8.102;2023-01-26T09:38:58;2.90;51.30
15574;DHT22;7888;46.748;8.102;2023-01-26T09:41:45;2.90;51.30
15574;DHT22;7888;46.748;8.102;2023-01-26T09:44:27;2.90;51.40
15574;DHT22;7888;46.748;8.102;2023-01-26T09:47:12;3.00;51.40
15574;DHT22;7888;46.748;8.102;2023-01-26T09:52:28;3.10;51.50
15574;DHT22;7888;46.748;8.102;2023-01-26T09:55:00;3.10;51.50
15574;DHT22;7888;46.748;8.102;2023-01-26T09:57:42;3.10;51.40
15574;DHT22;7888;46.748;8.102;2023-01-26T10:00:50;3.20;51.60
15574;DHT22;7888;46.748;8.102;2023-01-26T10:03:43;3.20;51.60
15574;DHT22;7888;46.748;8.102;2023-01-26T10:06:28;3.30;51.60
15574;DHT22;7888;46.748;8.102;2023-01-26T10:09:00;3.40;51.60
15574;DHT22;7888;46.748;8.102;2023-01-26T10:11:38;3.40;51.50
15574;DHT22;7888;46.748;8.102;2023-01-26T10:14:36;3.50;51.50
15574;DHT22;7888;46.748;8.102;2023-01-26T10:17:11;3.50;51.40
15574;DHT22;7888;46.748;8.102;2023-01-26T10:19:46;3.60;51.30
15574;DHT22;7888;46.748;8.102;2023-01-26T10:22:30;3.60;51.20
15574;DHT22;7888;46.748;8.102;2023-01-26T10:25:28;3.70;51.30
15574;DHT22;7888;46.748;8.102;2023-01-26T10:30:44;3.80;51.10
15574;DHT22;7888;46.748;8.102;2023-01-26T10:33:33;3.80;51.20
15574;DHT22;7888;46.748;8.102;2023-01-26T10:36:03;3.90;51.20
15574;DHT22;7888;46.748;8.102;2023-01-26T10:38:37;3.90;51.20
15574;DHT22;7888;46.748;8.102;2023-01-26T10:41:26;4.00;51.10
15574;DHT22;7888;46.748;8.102;2023-01-26T10:46:40;4.10;51.00
15574;DHT22;7888;46.748;8.102;2023-01-26T10:51:43;4.20;50.90
15574;DHT22;7888;46.748;8.102;2023-01-26T10:54:22;4.30;50.90
15574;DHT22;7888;46.748;8.102;2023-01-26T10:56:57;4.30;50.80
15574;DHT22;7888;46.748;8.102;2023-01-26T10:59:37;4.30;50.70
15574;DHT22;7888;46.748;8.102;2023-01-26T11:04:37;4.40;50.60
15574;DHT22;7888;46.748;8.102;2023-01-26T11:07:24;4.50;50.60
15574;DHT22;7888;46.748;8.102;2023-01-26T11:09:52;4.50;50.50
15574;DHT22;7888;46.748;8.102;2023-01-26T11:12:20;4.60;50.60
15574;DHT22;7888;46.748;8.102;2023-01-26T11:15:04;4.60;50.70
15574;DHT22;7888;46.748;8.102;2023-01-26T11:17:58;4.60;50.50
15574;DHT22;7888;46.748;8.102;2023-01-26T11:20:41;4.60;50.40
15574;DHT22;7888;46.748;8.102;2023-01-26T11:35:01;4.80;49.80
15574;DHT22;7888;46.748;8.102;2023-01-26T11:46:08;4.70;49.70
15574;DHT22;7888;46.748;8.102;2023-01-26T11:52:20;4.70;49.70
15574;DHT22;7888;46.748;8.102;2023-01-26T12:01:09;4.60;49.70
15574;DHT22;7888;46.748;8.102;2023-01-26T12:03:48;4.60;49.80
15574;DHT22;7888;46.748;8.102;2023-01-26T12:08:55;4.60;49.80
15574;DHT22;7888;46.748;8.102;2023-01-26T12:11:41;4.60;49.80
15574;DHT22;7888;46.748;8.102;2023-01-26T12:20:00;4.70;49.80
15574;DHT22;7888;46.748;8.102;2023-01-26T12:22:38;4.70;49.80
15574;DHT22;7888;46.748;8.102;2023-01-26T12:25:28;4.70;49.80
15574;DHT22;7888;46.748;8.102;2023-01-26T12:33:27;4.80;49.80
15574;DHT22;7888;46.748;8.102;2023-01-26T12:36:14;4.80;50.30
15574;DHT22;7888;46.748;8.102;2023-01-26T12:52:50;4.90;49.20
15574;DHT22;7888;46.748;8.102;2023-01-26T12:55:43;4.90;49.30
15574;DHT22;7888;46.748;8.102;2023-01-26T12:58:20;4.90;49.30
15574;DHT22;7888;46.748;8.102;2023-01-26T13:01:09;4.90;49.40
15574;DHT22;7888;46.748;8.102;2023-01-26T13:03:43;4.90;49.40
15574;DHT22;7888;46.748;8.102;2023-01-26T13:11:56;4.90;49.30
15574;DHT22;7888;46.748;8.102;2023-01-26T13:22:36;5.00;49.60
15574;DHT22;7888;46.748;8.102;2023-01-26T13:27:58;5.00;49.40
15574;DHT22;7888;46.748;8.102;2023-01-26T13:32:55;5.00;49.40
15574;DHT22;7888;46.748;8.102;2023-01-26T13:35:34;5.10;49.50
15574;DHT22;7888;46.748;8.102;2023-01-26T13:38:03;5.10;49.40
15574;DHT22;7888;46.748;8.102;2023-01-26T13:40:46;5.10;49.40
15574;DHT22;7888;46.748;8.102;2023-01-26T13:43:28;5.10;49.30
15574;DHT22;7888;46.748;8.102;2023-01-26T13:48:50;5.10;49.40
15574;DHT22;7888;46.748;8.102;2023-01-26T13:51:18;5.00;49.40
15574;DHT22;7888;46.748;8.102;2023-01-26T13:56:39;5.00;49.50
15574;DHT22;7888;46.748;8.102;2023-01-26T13:59:15;5.00;49.50
15574;DHT22;7888;46.748;8.102;2023-01-26T14:01:50;5.00;49.30
15574;DHT22;7888;46.748;8.102;2023-01-26T14:04:23;5.00;49.30
15574;DHT22;7888;46.748;8.102;2023-01-26T14:07:05;5.00;49.20
15574;DHT22;7888;46.748;8.102;2023-01-26T14:09:48;4.90;49.20
15574;DHT22;7888;46.748;8.102;2023-01-26T14:12:19;4.90;49.20
15574;DHT22;7888;46.748;8.102;2023-01-26T14:14:51;4.90;49.20
15574;DHT22;7888;46.748;8.102;2023-01-26T14:19:59;4.80;49.10
15574;DHT22;7888;46.748;8.102;2023-01-26T14:22:28;4.70;49.10
15574;DHT22;7888;46.748;8.102;2023-01-26T14:24:54;4.60;49.20
15574;DHT22;7888;46.748;8.102;2023-01-26T14:27:36;4.60;49.40
15574;DHT22;7888;46.748;8.102;2023-01-26T14:30:32;4.60;49.60
15574;DHT22;7888;46.748;8.102;2023-01-26T14:33:05;4.50;49.70
15574;DHT22;7888;46.748;8.102;2023-01-26T14:35:37;4.50;49.70
15574;DHT22;7888;46.748;8.102;2023-01-26T14:38:15;4.60;49.70
15574;DHT22;7888;46.748;8.102;2023-01-26T14:40:48;4.60;49.60
15574;DHT22;7888;46.748;8.102;2023-01-26T14:43:19;4.60;49.60
15574;DHT22;7888;46.748;8.102;2023-01-26T14:51:23;4.50;49.40
15574;DHT22;7888;46.748;8.102;2023-01-26T14:56:56;4.50;49.40
15574;DHT22;7888;46.748;8.102;2023-01-26T14:59:42;4.40;49.40
15574;DHT22;7888;46.748;8.102;2023-01-26T15:02:26;4.40;49.50
15574;DHT22;7888;46.748;8.102;2023-01-26T15:05:03;4.40;49.60
15574;DHT22;7888;46.748;8.102;2023-01-26T15:07:40;4.30;49.70
15574;DHT22;7888;46.748;8.102;2023-01-26T15:59:05;4.20;49.90
15574;DHT22;7888;46.748;8.102;2023-01-26T16:01:31;4.10;49.80
15574;DHT22;7888;46.748;8.102;2023-01-26T16:03:57;4.10;49.90
15574;DHT22;7888;46.748;8.102;2023-01-26T16:06:30;4.10;50.00
15574;DHT22;7888;46.748;8.102;2023-01-26T16:08:58;4.00;50.10
15574;DHT22;7888;46.748;8.102;2023-01-26T16:11:29;4.10;50.10
15574;DHT22;7888;46.748;8.102;2023-01-26T16:13:57;4.00;50.10
15574;DHT22;7888;46.748;8.102;2023-01-26T16:16:23;4.10;50.20
15574;DHT22;7888;46.748;8.102;2023-01-26T16:18:52;4.00;50.20
15574;DHT22;7888;46.748;8.102;2023-01-26T16:21:22;4.00;50.20
15574;DHT22;7888;46.748;8.102;2023-01-26T16:23:57;4.00;50.20
15574;DHT22;7888;46.748;8.102;2023-01-26T16:26:25;4.00;50.20
15574;DHT22;7888;46.748;8.102;2023-01-26T16:28:52;4.00;50.20
15574;DHT22;7888;46.748;8.102;2023-01-26T16:31:19;4.00;50.20
15574;DHT22;7888;46.748;8.102;2023-01-26T16:33:48;4.00;50.20
15574;DHT22;7888;46.748;8.102;2023-01-26T16:36:16;4.00;50.10
15574;DHT22;7888;46.748;8.102;2023-01-26T16:38:43;4.00;50.10
15574;DHT22;7888;46.748;8.102;2023-01-26T16:41:26;4.00;50.10
15574;DHT22;7888;46.748;8.102;2023-01-26T16:43:55;4.00;50.20
15574;DHT22;7888;46.748;8.102;2023-01-26T16:46:24;3.90;50.20
15574;DHT22;7888;46.748;8.102;2023-01-26T16:48:51;3.90;50.30
15574;DHT22;7888;46.748;8.102;2023-01-26T16:51:27;3.90;50.30
15574;DHT22;7888;46.748;8.102;2023-01-26T16:53:56;3.90;50.30
15574;DHT22;7888;46.748;8.102;2023-01-26T16:56:23;3.90;50.30
15574;DHT22;7888;46.748;8.102;2023-01-26T16:58:49;3.90;50.30
15574;DHT22;7888;46.748;8.102;2023-01-26T17:01:23;3.90;50.30
15574;DHT22;7888;46.748;8.102;2023-01-26T17:03:57;3.90;50.30
15574;DHT22;7888;46.748;8.102;2023-01-26T17:06:23;3.90;50.30
15574;DHT22;7888;46.748;8.102;2023-01-26T17:08:49;3.90;50.30
15574;DHT22;7888;46.748;8.102;2023-01-26T17:11:20;3.90;50.30
15574;DHT22;7888;46.748;8.102;2023-01-26T17:13:51;3.90;50.40
15574;DHT22;7888;46.748;8.102;2023-01-26T17:16:19;3.90;50.40
15574;DHT22;7888;46.748;8.102;2023-01-26T17:18:47;3.90;50.30
15574;DHT22;7888;46.748;8.102;2023-01-26T17:21:16;4.00;50.40
15574;DHT22;7888;46.748;8.102;2023-01-26T17:23:43;3.90;50.40
15574;DHT22;7888;46.748;8.102;2023-01-26T17:26:13;4.00;50.40
15574;DHT22;7888;46.748;8.102;2023-01-26T17:28:45;4.00;50.40
15574;DHT22;7888;46.748;8.102;2023-01-26T17:31:15;4.00;50.40
15574;DHT22;7888;46.748;8.102;2023-01-26T17:33:44;4.00;50.30
15574;DHT22;7888;46.748;8.102;2023-01-26T17:36:11;3.90;50.30
15574;DHT22;7888;46.748;8.102;2023-01-26T17:38:38;3.90;50.20
15574;DHT22;7888;46.748;8.102;2023-01-26T17:41:04;3.90;50.20
15574;DHT22;7888;46.748;8.102;2023-01-26T17:43:31;3.90;50.30
15574;DHT22;7888;46.748;8.102;2023-01-26T17:46:09;3.90;50.30
15574;DHT22;7888;46.748;8.102;2023-01-26T17:48:37;3.80;50.40
15574;DHT22;7888;46.748;8.102;2023-01-26T17:51:07;3.80;50.30
15574;DHT22;7888;46.748;8.102;2023-01-26T17:53:39;3.80;50.40
15574;DHT22;7888;46.748;8.102;2023-01-26T17:56:07;3.80;50.30
15574;DHT22;7888;46.748;8.102;2023-01-26T17:58:35;3.80;50.30
15574;DHT22;7888;46.748;8.102;2023-01-26T18:01:01;3.80;50.40
15574;DHT22;7888;46.748;8.102;2023-01-26T18:03:29;3.80;50.40
15574;DHT22;7888;46.748;8.102;2023-01-26T18:05:55;3.80;50.40
15574;DHT22;7888;46.748;8.102;2023-01-26T18:08:22;3.80;50.40
15574;DHT22;7888;46.748;8.102;2023-01-26T18:10:49;3.80;50.30
15574;DHT22;7888;46.748;8.102;2023-01-26T18:13:24;3.80;50.20
15574;DHT22;7888;46.748;8.102;2023-01-26T18:15:51;3.80;50.00
15574;DHT22;7888;46.748;8.102;2023-01-26T18:18:16;3.80;50.00
15574;DHT22;7888;46.748;8.102;2023-01-26T18:20:42;3.80;50.00
15574;DHT22;7888;46.748;8.102;2023-01-26T18:23:08;3.80;49.90
15574;DHT22;7888;46.748;8.102;2023-01-26T18:25:34;3.70;49.90
15574;DHT22;7888;46.748;8.102;2023-01-26T18:28:01;3.70;49.90
15574;DHT22;7888;46.748;8.102;2023-01-26T18:30:27;3.70;49.90
15574;DHT22;7888;46.748;8.102;2023-01-26T18:32:53;3.70;49.80
15574;DHT22;7888;46.748;8.102;2023-01-26T18:35:19;3.70;49.80
15574;DHT22;7888;46.748;8.102;2023-01-26T18:37:44;3.70;49.80
15574;DHT22;7888;46.748;8.102;2023-01-26T18:40:11;3.70;49.80
15574;DHT22;7888;46.748;8.102;2023-01-26T18:42:38;3.70;49.70
15574;DHT22;7888;46.748;8.102;2023-01-26T18:45:04;3.70;49.70
15574;DHT22;7888;46.748;8.102;2023-01-26T18:47:31;3.60;49.60
15574;DHT22;7888;46.748;8.102;2023-01-26T18:49:57;3.60;49.60
15574;DHT22;7888;46.748;8.102;2023-01-26T18:52:24;3.60;49.50
15574;DHT22;7888;46.748;8.102;2023-01-26T18:54:50;3.60;49.60
15574;DHT22;7888;46.748;8.102;2023-01-26T18:57:16;3.60;49.50
15574;DHT22;7888;46.748;8.102;2023-01-26T18:59:42;3.50;49.50
15574;DHT22;7888;46.748;8.102;2023-01-26T19:02:13;3.40;49.60
15574;DHT22;7888;46.748;8.102;2023-01-26T19:04:40;3.40;49.80
15574;DHT22;7888;46.748;8.102;2023-01-26T19:07:07;3.40;49.90